sensor_id;sensor_type;location;lat;lon;timestamp;temperature;humidity
285;DHT22;127;48.770;9.212;2022-12-29T00:01:10;9.40;99.90
285;DHT22;127;48.770;9.212;2022-12-29T00:03:39;9.40;99.90
285;DHT22;127;48.770;9.212;2022-12-29T00:06:08;9.40;99.90
285;DHT22;127;48.770;9.212;2022-12-29T00:08:36;9.50;99.90
285;DHT22;127;48.770;9.212;2022-12-29T00:11:08;9.40;99.90
285;DHT22;127;48.770;9.212;2022-12-29T00:13:39;9.50;99.90
285;DHT22;127;48.770;9.212;2022-12-29T00:16:21;9.60;99.90
285;DHT22;127;48.770;9.212;2022-12-29T00:18:49;9.70;99.90
285;DHT22;127;48.770;9.212;2022-12-29T00:21:21;9.70;99.90
285;DHT22;127;48.770;9.212;2022-12-29T00:24:03;9.60;99.90
285;DHT22;127;48.770;9.212;2022-12-29T00:26:44;9.70;99.90
285;DHT22;127;48.770;9.212;2022-12-29T00:29:28;9.70;99.90
285;DHT22;127;48.770;9.212;2022-12-29T00:32:09;9.80;99.90
285;DHT22;127;48.770;9.212;2022-12-29T00:34:51;9.80;99.90
285;DHT22;127;48.770;9.212;2022-12-29T00:37:34;9.80;99.90
285;DHT22;127;48.770;9.212;2022-12-29T00:40:15;9.90;99.90
285;DHT22;127;48.770;9.212;2022-12-29T00:42:58;9.90;99.90
285;DHT22;127;48.770;9.212;2022-12-29T00:45:43;10.00;99.90
285;DHT22;127;48.770;9.212;2022-12-29T00:48:11;10.20;99.90
285;DHT22;127;48.770;9.212;2022-12-29T00:50:40;10.30;99.90
285;DHT22;127;48.770;9.212;2022-12-29T00:53:06;10.30;99.90
285;DHT22;127;48.770;9.212;2022-12-29T00:55:36;10.40;99.90
285;DHT22;127;48.770;9.212;2022-12-29T00:58:05;10.50;99.90
285;DHT22;127;48.770;9.212;2022-12-29T01:00:33;10.50;99.90
285;DHT22;127;48.770;9.212;2022-12-29T01:03:04;10.60;99.90
285;DHT22;127;48.770;9.212;2022-12-29T01:05:36;10.50;99.90
285;DHT22;127;48.770;9.212;2022-12-29T01:08:05;10.50;99.90
285;DHT22;127;48.770;9.212;2022-12-29T01:10:33;10.60;99.90
285;DHT22;127;48.770;9.212;2022-12-29T01:12:59;10.60;99.90
285;DHT22;127;48.770;9.212;2022-12-29T01:15:28;10.50;99.90
285;DHT22;127;48.770;9.212;2022-12-29T01:17:56;10.50;99.90
285;DHT22;127;48.770;9.212;2022-12-29T01:20:27;10.60;99.90
285;DHT22;127;48.770;9.212;2022-12-29T01:22:56;10.70;99.90
285;DHT22;127;48.770;9.212;2022-12-29T01:25:25;10.70;99.90
285;DHT22;127;48.770;9.212;2022-12-29T01:27:53;10.70;99.90
285;DHT22;127;48.770;9.212;2022-12-29T01:30:22;10.80;99.90
285;DHT22;127;48.770;9.212;2022-12-29T01:32:50;10.80;99.90
285;DHT22;127;48.770;9.212;2022-12-29T01:35:19;10.70;99.90
285;DHT22;127;48.770;9.212;2022-12-29T01:37:51;10.70;99.90
285;DHT22;127;48.770;9.212;2022-12-29T01:40:20;10.70;99.90
285;DHT22;127;48.770;9.212;2022-12-29T01:42:48;10.70;99.90
285;DHT22;127;48.770;9.212;2022-12-29T01:45:18;10.70;99.90
285;DHT22;127;48.770;9.212;2022-12-29T01:47:50;10.60;99.90
285;DHT22;127;48.770;9.212;2022-12-29T01:50:25;10.70;99.90
285;DHT22;127;48.770;9.212;2022-12-29T01:53:01;10.60;99.90
285;DHT22;127;48.770;9.212;2022-12-29T01:55:34;10.60;99.90
285;DHT22;127;48.770;9.212;2022-12-29T01:58:05;10.60;99.90
285;DHT22;127;48.770;9.212;2022-12-29T02:00:34;10.60;99.90
285;DHT22;127;48.770;9.212;2022-12-29T02:03:04;10.60;99.90
285;DHT22;127;48.770;9.212;2022-12-29T02:05:38;10.60;99.90
285;DHT22;127;48.770;9.212;2022-12-29T02:08:11;10.60;99.90
285;DHT22;127;48.770;9.212;2022-12-29T02:10:41;10.70;99.90
285;DHT22;127;48.770;9.212;2022-12-29T02:13:11;10.70;99.90
285;DHT22;127;48.770;9.212;2022-12-29T02:15:50;10.60;99.90
285;DHT22;127;48.770;9.212;2022-12-29T02:18:28;10.50;99.90
285;DHT22;127;48.770;9.212;2022-12-29T02:27:21;10.70;99.90
285;DHT22;127;48.770;9.212;2022-12-29T02:30:07;10.60;99.90
285;DHT22;127;48.770;9.212;2022-12-29T02:32:50;10.60;99.90
285;DHT22;127;48.770;9.212;2022-12-29T02:35:25;10.70;99.90
285;DHT22;127;48.770;9.212;2022-12-29T02:38:03;10.80;99.90
285;DHT22;127;48.770;9.212;2022-12-29T02:40:40;10.80;99.90
285;DHT22;127;48.770;9.212;2022-12-29T02:43:17;10.80;99.90
285;DHT22;127;48.770;9.212;2022-12-29T02:45:54;10.80;99.90
285;DHT22;127;48.770;9.212;2022-12-29T02:48:31;10.90;99.90
285;DHT22;127;48.770;9.212;2022-12-29T02:51:02;10.80;99.90
285;DHT22;127;48.770;9.212;2022-12-29T02:53:33;10.80;99.90
285;DHT22;127;48.770;9.212;2022-12-29T02:56:16;10.90;99.90
285;DHT22;127;48.770;9.212;2022-12-29T02:58:45;10.90;99.90
285;DHT22;127;48.770;9.212;2022-12-29T03:01:26;10.90;99.90
285;DHT22;127;48.770;9.212;2022-12-29T03:04:18;11.00;99.90
285;DHT22;127;48.770;9.212;2022-12-29T03:06:56;11.00;99.90
285;DHT22;127;48.770;9.212;2022-12-29T03:09:35;11.00;99.90
285;DHT22;127;48.770;9.212;2022-12-29T03:12:14;11.10;99.90
285;DHT22;127;48.770;9.212;2022-12-29T03:14:55;11.00;99.90
285;DHT22;127;48.770;9.212;2022-12-29T03:17:46;11.00;99.90
285;DHT22;127;48.770;9.212;2022-12-29T03:20:22;10.90;99.90
285;DHT22;127;48.770;9.212;2022-12-29T03:22:59;10.90;99.90
285;DHT22;127;48.770;9.212;2022-12-29T03:25:31;11.00;99.90
285;DHT22;127;48.770;9.212;2022-12-29T03:28:02;11.00;99.90
285;DHT22;127;48.770;9.212;2022-12-29T03:30:33;11.10;99.90
285;DHT22;127;48.770;9.212;2022-12-29T03:33:04;11.20;99.90
285;DHT22;127;48.770;9.212;2022-12-29T03:35:42;11.10;99.90
285;DHT22;127;48.770;9.212;2022-12-29T03:38:15;11.00;99.90
285;DHT22;127;48.770;9.212;2022-12-29T03:40:48;11.10;99.90
285;DHT22;127;48.770;9.212;2022-12-29T03:43:17;11.20;99.90
285;DHT22;127;48.770;9.212;2022-12-29T03:45:46;11.10;99.90
285;DHT22;127;48.770;9.212;2022-12-29T03:48:14;11.10;99.90
285;DHT22;127;48.770;9.212;2022-12-29T03:50:46;11.20;99.90
285;DHT22;127;48.770;9.212;2022-12-29T03:53:14;11.20;99.90
285;DHT22;127;48.770;9.212;2022-12-29T03:55:43;11.20;99.90
285;DHT22;127;48.770;9.212;2022-12-29T03:58:11;11.20;99.90
285;DHT22;127;48.770;9.212;2022-12-29T04:00:40;11.30;99.90
285;DHT22;127;48.770;9.212;2022-12-29T04:03:09;11.30;99.90
285;DHT22;127;48.770;9.212;2022-12-29T04:05:37;11.20;99.90
285;DHT22;127;48.770;9.212;2022-12-29T04:08:08;11.30;99.90
285;DHT22;127;48.770;9.212;2022-12-29T04:10:37;11.20;99.90
285;DHT22;127;48.770;9.212;2022-12-29T04:13:06;11.10;99.90
285;DHT22;127;48.770;9.212;2022-12-29T04:15:34;11.10;99.90
285;DHT22;127;48.770;9.212;2022-12-29T04:18:03;11.00;99.90
285;DHT22;127;48.770;9.212;2022-12-29T04:20:32;11.00;99.90
285;DHT22;127;48.770;9.212;2022-12-29T04:23:15;11.00;99.90
285;DHT22;127;48.770;9.212;2022-12-29T04:25:45;11.00;99.90
285;DHT22;127;48.770;9.212;2022-12-29T04:28:14;11.00;99.90
285;DHT22;127;48.770;9.212;2022-12-29T04:30:43;10.90;99.90
285;DHT22;127;48.770;9.212;2022-12-29T04:33:12;11.00;99.90
285;DHT22;127;48.770;9.212;2022-12-29T04:35:41;11.00;99.90
285;DHT22;127;48.770;9.212;2022-12-29T04:38:10;11.00;99.90
285;DHT22;127;48.770;9.212;2022-12-29T04:40:43;11.00;99.90
285;DHT22;127;48.770;9.212;2022-12-29T04:43:12;11.00;99.90
285;DHT22;127;48.770;9.212;2022-12-29T04:45:43;11.10;99.90
285;DHT22;127;48.770;9.212;2022-12-29T04:48:12;11.10;99.90
285;DHT22;127;48.770;9.212;2022-12-29T04:50:41;11.10;99.90
285;DHT22;127;48.770;9.212;2022-12-29T04:53:10;11.00;99.90
285;DHT22;127;48.770;9.212;2022-12-29T04:55:41;11.00;99.90
285;DHT22;127;48.770;9.212;2022-12-29T04:58:09;11.00;99.90
285;DHT22;127;48.770;9.212;2022-12-29T05:00:38;11.00;99.90
285;DHT22;127;48.770;9.212;2022-12-29T05:03:07;10.90;99.90
285;DHT22;127;48.770;9.212;2022-12-29T05:05:35;11.00;99.90
285;DHT22;127;48.770;9.212;2022-12-29T05:08:04;11.10;99.90
285;DHT22;127;48.770;9.212;2022-12-29T05:10:33;11.10;99.90
285;DHT22;127;48.770;9.212;2022-12-29T05:13:04;11.10;99.90
285;DHT22;127;48.770;9.212;2022-12-29T05:15:33;11.00;99.90
285;DHT22;127;48.770;9.212;2022-12-29T05:18:01;11.10;99.90
285;DHT22;127;48.770;9.212;2022-12-29T05:20:30;11.10;99.90
285;DHT22;127;48.770;9.212;2022-12-29T05:22:58;11.10;99.90
285;DHT22;127;48.770;9.212;2022-12-29T05:25:27;11.00;99.90
285;DHT22;127;48.770;9.212;2022-12-29T05:27:56;10.90;99.90
285;DHT22;127;48.770;9.212;2022-12-29T05:30:27;11.00;99.90
285;DHT22;127;48.770;9.212;2022-12-29T05:32:55;11.00;99.90
285;DHT22;127;48.770;9.212;2022-12-29T05:35:24;11.00;99.90
285;DHT22;127;48.770;9.212;2022-12-29T05:37:52;11.00;99.90
285;DHT22;127;48.770;9.212;2022-12-29T05:40:21;11.00;99.90
285;DHT22;127;48.770;9.212;2022-12-29T05:42:50;11.00;99.90
285;DHT22;127;48.770;9.212;2022-12-29T05:45:18;10.90;99.90
285;DHT22;127;48.770;9.212;2022-12-29T05:47:50;10.90;99.90
285;DHT22;127;48.770;9.212;2022-12-29T05:50:18;10.90;99.90
285;DHT22;127;48.770;9.212;2022-12-29T05:52:47;10.90;99.90
285;DHT22;127;48.770;9.212;2022-12-29T05:55:24;11.00;99.90
285;DHT22;127;48.770;9.212;2022-12-29T05:57:53;11.00;99.90
285;DHT22;127;48.770;9.212;2022-12-29T06:00:22;11.10;99.90
285;DHT22;127;48.770;9.212;2022-12-29T06:02:53;11.00;99.90
285;DHT22;127;48.770;9.212;2022-12-29T06:05:22;11.10;99.90
285;DHT22;127;48.770;9.212;2022-12-29T06:07:50;11.10;99.90
285;DHT22;127;48.770;9.212;2022-12-29T06:10:19;11.10;99.90
285;DHT22;127;48.770;9.212;2022-12-29T06:12:48;11.10;99.90
285;DHT22;127;48.770;9.212;2022-12-29T06:15:17;11.10;99.90
285;DHT22;127;48.770;9.212;2022-12-29T06:17:45;11.10;99.90
285;DHT22;127;48.770;9.212;2022-12-29T06:20:17;11.00;99.90
285;DHT22;127;48.770;9.212;2022-12-29T06:22:45;11.00;99.90
285;DHT22;127;48.770;9.212;2022-12-29T06:25:15;11.00;99.90
285;DHT22;127;48.770;9.212;2022-12-29T06:27:44;11.10;99.90
285;DHT22;127;48.770;9.212;2022-12-29T06:30:12;11.00;99.90
285;DHT22;127;48.770;9.212;2022-12-29T06:32:43;10.90;99.90
285;DHT22;127;48.770;9.212;2022-12-29T06:35:11;10.70;99.90
285;DHT22;127;48.770;9.212;2022-12-29T06:37:42;10.70;99.90
285;DHT22;127;48.770;9.212;2022-12-29T06:40:11;10.60;99.90
285;DHT22;127;48.770;9.212;2022-12-29T06:42:40;10.50;99.90
285;DHT22;127;48.770;9.212;2022-12-29T06:45:10;10.40;99.90
285;DHT22;127;48.770;9.212;2022-12-29T06:47:38;10.50;99.90
285;DHT22;127;48.770;9.212;2022-12-29T06:50:08;10.50;99.90
285;DHT22;127;48.770;9.212;2022-12-29T06:52:36;10.50;99.90
285;DHT22;127;48.770;9.212;2022-12-29T06:55:08;10.50;99.90
285;DHT22;127;48.770;9.212;2022-12-29T06:57:37;10.50;99.90
285;DHT22;127;48.770;9.212;2022-12-29T07:00:07;10.40;99.90
285;DHT22;127;48.770;9.212;2022-12-29T07:02:36;10.30;99.90
285;DHT22;127;48.770;9.212;2022-12-29T07:05:05;10.30;99.90
285;DHT22;127;48.770;9.212;2022-12-29T07:07:35;10.20;99.90
285;DHT22;127;48.770;9.212;2022-12-29T07:10:04;10.30;99.90
285;DHT22;127;48.770;9.212;2022-12-29T07:12:35;10.20;99.90
285;DHT22;127;48.770;9.212;2022-12-29T07:15:04;10.30;99.90
285;DHT22;127;48.770;9.212;2022-12-29T07:17:33;10.30;99.90
285;DHT22;127;48.770;9.212;2022-12-29T07:20:02;10.30;99.90
285;DHT22;127;48.770;9.212;2022-12-29T07:22:31;10.20;99.90
285;DHT22;127;48.770;9.212;2022-12-29T07:24:59;10.10;99.90
285;DHT22;127;48.770;9.212;2022-12-29T07:27:28;10.10;99.90
285;DHT22;127;48.770;9.212;2022-12-29T07:30:00;10.10;99.90
285;DHT22;127;48.770;9.212;2022-12-29T07:32:28;10.10;99.90
285;DHT22;127;48.770;9.212;2022-12-29T07:35:00;10.20;99.90
285;DHT22;127;48.770;9.212;2022-12-29T07:37:28;10.30;99.90
285;DHT22;127;48.770;9.212;2022-12-29T07:39:57;10.30;99.90
285;DHT22;127;48.770;9.212;2022-12-29T07:42:25;10.40;99.90
285;DHT22;127;48.770;9.212;2022-12-29T07:44:54;10.30;99.90
285;DHT22;127;48.770;9.212;2022-12-29T07:47:25;10.40;99.90
285;DHT22;127;48.770;9.212;2022-12-29T07:49:54;10.40;99.90
285;DHT22;127;48.770;9.212;2022-12-29T07:52:22;10.50;99.90
285;DHT22;127;48.770;9.212;2022-12-29T07:54:51;10.60;99.90
285;DHT22;127;48.770;9.212;2022-12-29T07:57:19;10.70;99.90
285;DHT22;127;48.770;9.212;2022-12-29T07:59:48;10.80;99.90
285;DHT22;127;48.770;9.212;2022-12-29T08:02:17;10.80;99.90
285;DHT22;127;48.770;9.212;2022-12-29T08:04:48;10.80;99.90
285;DHT22;127;48.770;9.212;2022-12-29T08:07:16;10.80;99.90
285;DHT22;127;48.770;9.212;2022-12-29T08:09:45;10.80;99.90
285;DHT22;127;48.770;9.212;2022-12-29T08:12:13;10.80;99.90
285;DHT22;127;48.770;9.212;2022-12-29T08:14:43;10.80;99.90
285;DHT22;127;48.770;9.212;2022-12-29T08:17:11;10.90;99.90
285;DHT22;127;48.770;9.212;2022-12-29T08:19:40;10.90;99.90
285;DHT22;127;48.770;9.212;2022-12-29T08:22:13;10.90;99.90
285;DHT22;127;48.770;9.212;2022-12-29T08:24:41;10.90;99.90
285;DHT22;127;48.770;9.212;2022-12-29T08:27:10;11.00;99.90
285;DHT22;127;48.770;9.212;2022-12-29T08:29:38;11.00;99.90
285;DHT22;127;48.770;9.212;2022-12-29T08:32:07;11.00;99.90
285;DHT22;127;48.770;9.212;2022-12-29T08:34:36;11.00;99.90
285;DHT22;127;48.770;9.212;2022-12-29T08:37:05;11.00;99.90
285;DHT22;127;48.770;9.212;2022-12-29T08:39:36;11.00;99.90
285;DHT22;127;48.770;9.212;2022-12-29T08:42:05;11.10;99.90
285;DHT22;127;48.770;9.212;2022-12-29T08:44:33;11.10;99.90
285;DHT22;127;48.770;9.212;2022-12-29T08:47:02;11.00;99.90
285;DHT22;127;48.770;9.212;2022-12-29T08:49:31;11.10;99.90
285;DHT22;127;48.770;9.212;2022-12-29T08:52:00;11.00;99.90
285;DHT22;127;48.770;9.212;2022-12-29T08:54:29;11.10;99.90
285;DHT22;127;48.770;9.212;2022-12-29T08:57:00;11.10;99.90
285;DHT22;127;48.770;9.212;2022-12-29T08:59:29;11.20;99.90
285;DHT22;127;48.770;9.212;2022-12-29T09:01:57;11.10;99.90
285;DHT22;127;48.770;9.212;2022-12-29T09:04:27;11.20;99.90
285;DHT22;127;48.770;9.212;2022-12-29T09:06:55;11.30;99.90
285;DHT22;127;48.770;9.212;2022-12-29T09:09:24;11.40;99.90
285;DHT22;127;48.770;9.212;2022-12-29T09:11:55;11.40;99.90
285;DHT22;127;48.770;9.212;2022-12-29T09:14:27;11.50;99.90
285;DHT22;127;48.770;9.212;2022-12-29T09:16:55;11.50;99.90
285;DHT22;127;48.770;9.212;2022-12-29T09:19:36;11.60;99.90
285;DHT22;127;48.770;9.212;2022-12-29T09:22:05;11.70;99.90
285;DHT22;127;48.770;9.212;2022-12-29T09:24:33;11.80;99.90
285;DHT22;127;48.770;9.212;2022-12-29T09:27:02;11.80;99.90
285;DHT22;127;48.770;9.212;2022-12-29T09:29:33;11.90;99.90
285;DHT22;127;48.770;9.212;2022-12-29T09:32:02;12.00;99.90
285;DHT22;127;48.770;9.212;2022-12-29T09:34:31;11.90;99.90
285;DHT22;127;48.770;9.212;2022-12-29T09:36:59;12.10;99.90
285;DHT22;127;48.770;9.212;2022-12-29T09:39:28;12.10;99.90
285;DHT22;127;48.770;9.212;2022-12-29T09:42:01;12.20;99.90
285;DHT22;127;48.770;9.212;2022-12-29T09:44:52;12.20;99.90
285;DHT22;127;48.770;9.212;2022-12-29T09:47:23;12.30;99.90
285;DHT22;127;48.770;9.212;2022-12-29T09:49:56;12.30;99.90
285;DHT22;127;48.770;9.212;2022-12-29T09:52:29;12.30;99.90
285;DHT22;127;48.770;9.212;2022-12-29T09:55:01;12.40;99.90
285;DHT22;127;48.770;9.212;2022-12-29T09:57:35;12.40;99.90
285;DHT22;127;48.770;9.212;2022-12-29T10:00:12;12.60;99.90
285;DHT22;127;48.770;9.212;2022-12-29T10:02:44;12.60;99.90
285;DHT22;127;48.770;9.212;2022-12-29T10:05:23;12.70;99.90
285;DHT22;127;48.770;9.212;2022-12-29T10:08:01;12.70;99.90
285;DHT22;127;48.770;9.212;2022-12-29T10:10:37;12.70;99.90
285;DHT22;127;48.770;9.212;2022-12-29T10:13:17;12.70;99.90
285;DHT22;127;48.770;9.212;2022-12-29T10:15:59;12.60;99.90
285;DHT22;127;48.770;9.212;2022-12-29T10:21:56;12.60;99.90
285;DHT22;127;48.770;9.212;2022-12-29T10:24:29;12.60;99.90
285;DHT22;127;48.770;9.212;2022-12-29T10:27:00;12.60;99.90
285;DHT22;127;48.770;9.212;2022-12-29T10:29:33;12.60;99.90
285;DHT22;127;48.770;9.212;2022-12-29T10:32:15;12.70;99.90
285;DHT22;127;48.770;9.212;2022-12-29T10:34:48;12.70;99.90
285;DHT22;127;48.770;9.212;2022-12-29T10:37:28;12.70;99.90
285;DHT22;127;48.770;9.212;2022-12-29T10:39:58;12.60;99.90
285;DHT22;127;48.770;9.212;2022-12-29T10:42:29;12.80;99.90
285;DHT22;127;48.770;9.212;2022-12-29T10:45:02;13.00;99.90
285;DHT22;127;48.770;9.212;2022-12-29T10:47:38;13.10;99.90
285;DHT22;127;48.770;9.212;2022-12-29T10:50:12;13.50;99.90
285;DHT22;127;48.770;9.212;2022-12-29T10:52:41;13.90;99.90
285;DHT22;127;48.770;9.212;2022-12-29T10:55:13;13.60;99.90
285;DHT22;127;48.770;9.212;2022-12-29T10:57:44;13.60;99.90
285;DHT22;127;48.770;9.212;2022-12-29T11:00:16;13.80;99.90
285;DHT22;127;48.770;9.212;2022-12-29T11:03:16;14.40;99.90
285;DHT22;127;48.770;9.212;2022-12-29T11:05:54;15.30;99.90
285;DHT22;127;48.770;9.212;2022-12-29T11:08:28;15.40;99.90
285;DHT22;127;48.770;9.212;2022-12-29T11:10:59;15.00;99.90
285;DHT22;127;48.770;9.212;2022-12-29T11:13:30;14.50;99.90
285;DHT22;127;48.770;9.212;2022-12-29T11:15:59;14.20;99.90
285;DHT22;127;48.770;9.212;2022-12-29T11:18:36;14.00;99.90
285;DHT22;127;48.770;9.212;2022-12-29T11:21:06;13.80;99.90
285;DHT22;127;48.770;9.212;2022-12-29T11:23:38;13.40;99.90
285;DHT22;127;48.770;9.212;2022-12-29T11:26:20;13.30;99.90
285;DHT22;127;48.770;9.212;2022-12-29T11:29:08;13.20;99.90
285;DHT22;127;48.770;9.212;2022-12-29T11:31:43;13.30;99.90
285;DHT22;127;48.770;9.212;2022-12-29T11:34:20;13.30;99.90
285;DHT22;127;48.770;9.212;2022-12-29T11:36:51;13.20;99.90
285;DHT22;127;48.770;9.212;2022-12-29T11:39:29;13.30;99.90
285;DHT22;127;48.770;9.212;2022-12-29T11:41:59;13.20;99.90
285;DHT22;127;48.770;9.212;2022-12-29T11:44:32;13.10;99.90
285;DHT22;127;48.770;9.212;2022-12-29T11:47:03;12.90;99.90
285;DHT22;127;48.770;9.212;2022-12-29T11:49:35;12.80;99.90
285;DHT22;127;48.770;9.212;2022-12-29T11:52:04;12.90;99.90
285;DHT22;127;48.770;9.212;2022-12-29T11:54:34;12.80;99.90
285;DHT22;127;48.770;9.212;2022-12-29T11:57:13;12.60;99.90
285;DHT22;127;48.770;9.212;2022-12-29T11:59:49;12.60;99.90
285;DHT22;127;48.770;9.212;2022-12-29T12:02:45;12.50;99.90
285;DHT22;127;48.770;9.212;2022-12-29T12:05:30;12.40;99.90
285;DHT22;127;48.770;9.212;2022-12-29T12:08:06;12.40;99.90
285;DHT22;127;48.770;9.212;2022-12-29T12:10:43;12.30;99.90
285;DHT22;127;48.770;9.212;2022-12-29T12:13:23;12.20;99.90
285;DHT22;127;48.770;9.212;2022-12-29T12:15:57;12.20;99.90
285;DHT22;127;48.770;9.212;2022-12-29T12:18:39;12.20;99.90
285;DHT22;127;48.770;9.212;2022-12-29T12:21:18;12.10;99.90
285;DHT22;127;48.770;9.212;2022-12-29T12:24:07;12.00;99.90
285;DHT22;127;48.770;9.212;2022-12-29T12:26:50;12.10;99.90
285;DHT22;127;48.770;9.212;2022-12-29T12:29:27;12.10;99.90
285;DHT22;127;48.770;9.212;2022-12-29T12:31:59;12.20;99.90
285;DHT22;127;48.770;9.212;2022-12-29T12:34:32;12.30;99.90
285;DHT22;127;48.770;9.212;2022-12-29T12:40:28;12.70;99.90
285;DHT22;127;48.770;9.212;2022-12-29T12:43:34;12.80;99.90
285;DHT22;127;48.770;9.212;2022-12-29T12:49:24;11.90;99.90
285;DHT22;127;48.770;9.212;2022-12-29T12:52:02;11.70;99.90
285;DHT22;127;48.770;9.212;2022-12-29T12:54:46;11.70;99.90
285;DHT22;127;48.770;9.212;2022-12-29T12:57:31;11.80;99.90
285;DHT22;127;48.770;9.212;2022-12-29T13:00:08;12.10;99.90
285;DHT22;127;48.770;9.212;2022-12-29T13:02:49;12.20;99.90
285;DHT22;127;48.770;9.212;2022-12-29T13:05:42;12.20;99.90
285;DHT22;127;48.770;9.212;2022-12-29T13:08:33;13.40;99.90
285;DHT22;127;48.770;9.212;2022-12-29T13:11:09;15.60;99.90
285;DHT22;127;48.770;9.212;2022-12-29T13:14:05;15.60;99.90
285;DHT22;127;48.770;9.212;2022-12-29T13:16:43;15.20;99.90
285;DHT22;127;48.770;9.212;2022-12-29T13:19:23;14.40;99.90
285;DHT22;127;48.770;9.212;2022-12-29T13:22:01;14.00;99.90
285;DHT22;127;48.770;9.212;2022-12-29T13:24:39;14.60;99.90
285;DHT22;127;48.770;9.212;2022-12-29T13:27:16;15.50;99.90
285;DHT22;127;48.770;9.212;2022-12-29T13:29:58;14.70;99.90
285;DHT22;127;48.770;9.212;2022-12-29T13:32:37;14.40;99.90
285;DHT22;127;48.770;9.212;2022-12-29T13:35:31;13.60;99.90
285;DHT22;127;48.770;9.212;2022-12-29T13:38:10;12.90;99.90
285;DHT22;127;48.770;9.212;2022-12-29T13:40:43;12.70;99.90
285;DHT22;127;48.770;9.212;2022-12-29T13:43:14;12.40;99.90
285;DHT22;127;48.770;9.212;2022-12-29T13:46:04;12.30;99.90
285;DHT22;127;48.770;9.212;2022-12-29T13:48:44;12.30;99.90
285;DHT22;127;48.770;9.212;2022-12-29T13:51:15;12.20;99.90
285;DHT22;127;48.770;9.212;2022-12-29T13:53:59;12.30;99.90
285;DHT22;127;48.770;9.212;2022-12-29T13:56:34;12.30;99.90
285;DHT22;127;48.770;9.212;2022-12-29T13:59:15;12.20;99.90
285;DHT22;127;48.770;9.212;2022-12-29T14:01:53;12.00;99.90
285;DHT22;127;48.770;9.212;2022-12-29T14:04:25;11.90;99.90
285;DHT22;127;48.770;9.212;2022-12-29T14:07:02;12.10;99.90
285;DHT22;127;48.770;9.212;2022-12-29T14:09:45;12.50;99.90
285;DHT22;127;48.770;9.212;2022-12-29T14:12:34;12.60;99.90
285;DHT22;127;48.770;9.212;2022-12-29T14:15:22;12.70;99.90
285;DHT22;127;48.770;9.212;2022-12-29T14:18:10;12.90;99.90
285;DHT22;127;48.770;9.212;2022-12-29T14:20:49;12.80;99.90
285;DHT22;127;48.770;9.212;2022-12-29T14:23:28;12.30;99.90
285;DHT22;127;48.770;9.212;2022-12-29T14:26:10;12.10;99.90
285;DHT22;127;48.770;9.212;2022-12-29T14:28:40;12.10;99.90
285;DHT22;127;48.770;9.212;2022-12-29T14:31:33;12.00;99.90
285;DHT22;127;48.770;9.212;2022-12-29T14:34:34;12.00;99.90
285;DHT22;127;48.770;9.212;2022-12-29T14:37:23;12.10;99.90
285;DHT22;127;48.770;9.212;2022-12-29T14:40:04;12.60;99.90
285;DHT22;127;48.770;9.212;2022-12-29T14:42:33;12.60;99.90
285;DHT22;127;48.770;9.212;2022-12-29T14:45:06;12.30;99.90
285;DHT22;127;48.770;9.212;2022-12-29T14:47:37;12.10;99.90
285;DHT22;127;48.770;9.212;2022-12-29T14:50:15;12.10;99.90
285;DHT22;127;48.770;9.212;2022-12-29T14:52:46;11.90;99.90
285;DHT22;127;48.770;9.212;2022-12-29T14:55:32;11.80;99.90
285;DHT22;127;48.770;9.212;2022-12-29T14:58:06;11.80;99.90
285;DHT22;127;48.770;9.212;2022-12-29T15:00:40;11.70;99.90
285;DHT22;127;48.770;9.212;2022-12-29T15:03:17;11.60;99.90
285;DHT22;127;48.770;9.212;2022-12-29T15:05:50;11.60;99.90
285;DHT22;127;48.770;9.212;2022-12-29T15:08:22;11.50;99.90
285;DHT22;127;48.770;9.212;2022-12-29T15:10:54;11.50;99.90
285;DHT22;127;48.770;9.212;2022-12-29T15:13:33;11.50;99.90
285;DHT22;127;48.770;9.212;2022-12-29T15:16:03;11.50;99.90
285;DHT22;127;48.770;9.212;2022-12-29T15:18:33;11.50;99.90
285;DHT22;127;48.770;9.212;2022-12-29T15:21:11;11.50;99.90
285;DHT22;127;48.770;9.212;2022-12-29T15:23:43;11.40;99.90
285;DHT22;127;48.770;9.212;2022-12-29T15:26:13;11.40;99.90
285;DHT22;127;48.770;9.212;2022-12-29T15:28:49;11.40;99.90
285;DHT22;127;48.770;9.212;2022-12-29T15:31:19;11.40;99.90
285;DHT22;127;48.770;9.212;2022-12-29T15:33:50;11.40;99.90
285;DHT22;127;48.770;9.212;2022-12-29T15:36:23;11.30;99.90
285;DHT22;127;48.770;9.212;2022-12-29T15:38:53;11.30;99.90
285;DHT22;127;48.770;9.212;2022-12-29T15:41:31;11.30;99.90
285;DHT22;127;48.770;9.212;2022-12-29T15:44:26;11.40;99.90
285;DHT22;127;48.770;9.212;2022-12-29T15:46:56;11.40;99.90
285;DHT22;127;48.770;9.212;2022-12-29T15:49:25;11.40;99.90
285;DHT22;127;48.770;9.212;2022-12-29T15:51:57;11.40;99.90
285;DHT22;127;48.770;9.212;2022-12-29T15:54:29;11.40;99.90
285;DHT22;127;48.770;9.212;2022-12-29T15:56:58;11.50;99.90
285;DHT22;127;48.770;9.212;2022-12-29T15:59:29;11.50;99.90
285;DHT22;127;48.770;9.212;2022-12-29T16:01:59;11.60;99.90
285;DHT22;127;48.770;9.212;2022-12-29T16:04:30;11.60;99.90
285;DHT22;127;48.770;9.212;2022-12-29T16:07:03;11.60;99.90
285;DHT22;127;48.770;9.212;2022-12-29T16:09:35;11.50;99.90
285;DHT22;127;48.770;9.212;2022-12-29T16:12:06;11.30;99.90
285;DHT22;127;48.770;9.212;2022-12-29T16:14:41;11.00;99.90
285;DHT22;127;48.770;9.212;2022-12-29T16:17:13;10.70;99.90
285;DHT22;127;48.770;9.212;2022-12-29T16:19:49;10.40;99.90
285;DHT22;127;48.770;9.212;2022-12-29T16:22:26;10.20;99.90
285;DHT22;127;48.770;9.212;2022-12-29T16:24:58;10.00;99.90
285;DHT22;127;48.770;9.212;2022-12-29T16:27:32;9.80;99.90
285;DHT22;127;48.770;9.212;2022-12-29T16:30:06;9.70;99.90
285;DHT22;127;48.770;9.212;2022-12-29T16:32:44;9.60;99.90
285;DHT22;127;48.770;9.212;2022-12-29T16:35:17;9.60;99.90
285;DHT22;127;48.770;9.212;2022-12-29T16:38:07;9.60;99.90
285;DHT22;127;48.770;9.212;2022-12-29T16:40:38;9.50;99.90
285;DHT22;127;48.770;9.212;2022-12-29T16:43:22;9.50;99.90
285;DHT22;127;48.770;9.212;2022-12-29T16:46:16;9.50;99.90
285;DHT22;127;48.770;9.212;2022-12-29T16:48:48;9.60;99.90
285;DHT22;127;48.770;9.212;2022-12-29T16:51:21;9.50;99.90
285;DHT22;127;48.770;9.212;2022-12-29T16:53:55;9.50;99.90
285;DHT22;127;48.770;9.212;2022-12-29T16:56:26;9.50;99.90
285;DHT22;127;48.770;9.212;2022-12-29T16:59:01;9.50;99.90
285;DHT22;127;48.770;9.212;2022-12-29T17:01:30;9.40;99.90
285;DHT22;127;48.770;9.212;2022-12-29T17:04:04;9.40;99.90
285;DHT22;127;48.770;9.212;2022-12-29T17:06:33;9.40;99.90
285;DHT22;127;48.770;9.212;2022-12-29T17:09:16;9.30;99.90
285;DHT22;127;48.770;9.212;2022-12-29T17:11:47;9.30;99.90
285;DHT22;127;48.770;9.212;2022-12-29T17:14:33;9.20;99.90
285;DHT22;127;48.770;9.212;2022-12-29T17:17:05;9.00;99.90
285;DHT22;127;48.770;9.212;2022-12-29T17:19:37;9.00;99.90
285;DHT22;127;48.770;9.212;2022-12-29T17:22:10;9.00;99.90
285;DHT22;127;48.770;9.212;2022-12-29T17:24:43;9.00;99.90
285;DHT22;127;48.770;9.212;2022-12-29T17:27:21;8.90;99.90
285;DHT22;127;48.770;9.212;2022-12-29T17:29:51;8.90;99.90
285;DHT22;127;48.770;9.212;2022-12-29T17:32:20;8.90;1.00
285;DHT22;127;48.770;9.212;2022-12-29T17:34:49;8.90;1.00